Time,TemperatureF,DewpointF,PressureIn,WindDirection,WindDirectionDegrees,WindSpeedMPH,WindSpeedGustMPH,Humidity,HourlyPrecipIn,Conditions,Clouds,dailyrainin,SolarRadiationWatts/m^2,SoftwareType,DateUTC
2017-05-26 00:03:00,63.0,60.3,30.00,NNE,33,2.0,2.0,91,0.00,,,0.00,0,WeatherCatV2.42B15,2017-05-25 22:03:00,
2017-05-26 00:08:00,63.0,60.3,30.00,NNE,31,3.0,3.0,91,0.00,,,0.00,0,WeatherCatV2.42B15,2017-05-25 22:08:00,
2017-05-26 00:13:00,63.1,60.7,30.00,NE,40,1.0,2.0,92,0.00,,,0.00,0,WeatherCatV2.42B15,2017-05-25 22:13:00,
2017-05-26 00:18:00,63.1,60.4,30.00,NE,40,3.0,3.0,91,0.00,,,0.00,0,WeatherCatV2.42B15,2017-05-25 22:18:00,
2017-05-26 00:23:00,62.9,60.5,30.00,North,355,2.0,3.0,92,0.00,,,0.00,0,WeatherCatV2.42B15,2017-05-25 22:23:00,
2017-05-26 00:28:00,63.0,60.6,30.00,North,11,2.0,4.0,92,0.00,,,0.00,0,WeatherCatV2.42B15,2017-05-25 22:28:00,
2017-05-26 00:33:00,62.9,60.2,30.00,NE,55,3.0,4.0,91,0.00,,,0.00,0,WeatherCatV2.42B15,2017-05-25 22:33:00,
2017-05-26 00:38:00,62.9,60.2,30.00,NE,55,3.0,3.0,91,0.00,,,0.00,0,WeatherCatV2.42B15,2017-05-25 22:38:00,
2017-05-26 00:43:00,62.4,59.7,30.00,ENE,74,0.0,2.0,91,0.00,,,0.00,0,WeatherCatV2.42B15,2017-05-25 22:43:00,
2017-05-26 00:48:00,62.0,59.3,30.00,ENE,74,0.0,0.0,91,0.00,,,0.00,0,WeatherCatV2.42B15,2017-05-25 22:48:00,
2017-05-26 00:53:00,61.8,59.1,30.00,ENE,74,0.0,0.0,91,0.00,,,0.00,0,WeatherCatV2.42B15,2017-05-25 22:53:00,
2017-05-26 00:58:00,61.7,59.3,30.00,ENE,74,0.0,0.0,92,0.00,,,0.00,0,WeatherCatV2.42B15,2017-05-25 22:58:00,
2017-05-26 01:03:00,61.7,59.3,30.00,NE,47,2.0,3.0,92,0.00,,,0.00,0,WeatherCatV2.42B15,2017-05-25 23:03:00,
2017-05-26 01:08:00,61.7,59.3,30.00,NNE,26,1.0,3.0,92,0.00,,,0.00,0,WeatherCatV2.42B15,2017-05-25 23:08:00,
2017-05-26 01:13:00,61.7,59.3,30.00,NW,324,2.0,3.0,92,0.00,,,0.00,0,WeatherCatV2.42B15,2017-05-25 23:13:00,
2017-05-26 01:18:00,61.7,59.3,30.00,NNE,13,2.0,3.0,92,0.00,,,0.00,0,WeatherCatV2.42B15,2017-05-25 23:18:00,
2017-05-26 01:23:00,61.6,59.2,30.00,ENE,57,3.0,4.0,92,0.00,,,0.00,0,WeatherCatV2.42B15,2017-05-25 23:23:00,
2017-05-26 01:28:00,61.3,59.0,30.00,ENE,57,2.0,2.0,92,0.00,,,0.00,0,WeatherCatV2.42B15,2017-05-25 23:28:00,
2017-05-26 01:33:00,61.2,58.8,30.00,ENE,57,1.0,3.0,92,0.00,,,0.00,0,WeatherCatV2.42B15,2017-05-25 23:33:00,
2017-05-26 01:38:00,61.3,59.3,29.99,NNW,338,1.0,1.0,93,0.00,,,0.00,0,WeatherCatV2.42B15,2017-05-25 23:38:00,
2017-05-26 01:43:00,61.3,59.0,29.99,NNW,338,0.0,0.0,92,0.00,,,0.00,0,WeatherCatV2.42B15,2017-05-25 23:43:00,
2017-05-26 01:48:00,61.1,58.8,29.99,NNW,338,0.0,0.0,92,0.00,,,0.00,0,WeatherCatV2.42B15,2017-05-25 23:48:00,
2017-05-26 01:53:00,61.4,59.3,29.99,NNW,338,2.0,2.0,93,0.00,,,0.00,0,WeatherCatV2.42B15,2017-05-25 23:53:00,
2017-05-26 01:58:00,61.5,59.2,29.99,NNW,338,0.0,0.0,92,0.00,,,0.00,0,WeatherCatV2.42B15,2017-05-25 23:58:00,
2017-05-26 02:03:00,61.4,59.0,29.99,NNW,338,0.0,0.0,92,0.00,,,0.00,0,WeatherCatV2.42B15,2017-05-26 00:03:00,
2017-05-26 02:08:00,61.1,58.8,29.99,NNW,338,0.0,0.0,92,0.00,,,0.00,0,WeatherCatV2.42B15,2017-05-26 00:08:00,
2017-05-26 02:13:00,61.0,58.7,29.99,NNW,338,0.0,0.0,92,0.00,,,0.00,0,WeatherCatV2.42B15,2017-05-26 00:13:00,
2017-05-26 02:18:00,60.9,58.6,29.99,NNW,338,0.0,0.0,92,0.00,,,0.00,0,WeatherCatV2.42B15,2017-05-26 00:18:00,
2017-05-26 02:23:00,60.6,58.3,29.99,NNW,338,0.0,1.0,92,0.00,,,0.00,0,WeatherCatV2.42B15,2017-05-26 00:23:00,
2017-05-26 02:28:00,60.4,58.1,29.99,North,355,1.0,3.0,92,0.00,,,0.00,0,WeatherCatV2.42B15,2017-05-26 00:28:00,
2017-05-26 02:33:00,60.8,58.8,29.99,NNW,345,3.0,6.0,93,0.00,,,0.00,0,WeatherCatV2.42B15,2017-05-26 00:33:00,
2017-05-26 02:38:00,60.9,58.6,29.99,NNW,329,5.0,6.0,92,0.00,,,0.00,0,WeatherCatV2.42B15,2017-05-26 00:38:00,
2017-05-26 02:43:00,60.8,58.5,29.99,NNW,333,3.0,5.0,92,0.00,,,0.00,0,WeatherCatV2.42B15,2017-05-26 00:43:00,
2017-05-26 02:48:00,60.7,58.4,29.99,NNW,327,3.0,3.0,92,0.00,,,0.00,0,WeatherCatV2.42B15,2017-05-26 00:48:00,
2017-05-26 02:53:00,60.6,58.3,29.99,NNW,335,3.0,4.0,92,0.00,,,0.00,0,WeatherCatV2.42B15,2017-05-26 00:53:00,
2017-05-26 02:58:00,60.4,57.8,29.99,NW,313,3.0,4.0,91,0.00,,,0.00,0,WeatherCatV2.42B15,2017-05-26 00:58:00,
2017-05-26 03:03:00,60.2,57.6,30.00,NW,310,3.0,5.0,91,0.00,,,0.00,0,WeatherCatV2.42B15,2017-05-26 01:03:00,
2017-05-26 03:08:00,60.1,57.2,30.00,NNW,329,4.0,5.0,90,0.00,,,0.00,0,WeatherCatV2.42B15,2017-05-26 01:08:00,
2017-05-26 03:13:00,60.1,56.2,30.00,North,355,3.0,5.0,87,0.00,,,0.00,0,WeatherCatV2.42B15,2017-05-26 01:13:00,
2017-05-26 03:18:00,60.1,55.2,30.00,NW,326,3.0,5.0,84,0.00,,,0.00,0,WeatherCatV2.42B15,2017-05-26 01:18:00,
2017-05-26 03:23:00,60.1,54.2,30.00,NNW,330,4.0,5.0,81,0.00,,,0.00,0,WeatherCatV2.42B15,2017-05-26 01:23:00,
2017-05-26 03:28:00,59.9,53.7,30.00,NNW,344,6.0,6.0,80,0.00,,,0.00,0,WeatherCatV2.42B15,2017-05-26 01:28:00,
2017-05-26 03:33:00,59.9,53.4,30.00,NW,326,2.0,6.0,79,0.00,,,0.00,0,WeatherCatV2.42B15,2017-05-26 01:33:00,
2017-05-26 03:38:00,60.1,52.9,30.00,NW,323,5.0,5.0,77,0.00,,,0.00,0,WeatherCatV2.42B15,2017-05-26 01:38:00,
2017-05-26 03:48:00,59.9,52.3,30.00,NNE,16,4.0,6.0,76,0.00,,,0.00,0,WeatherCatV2.42B15,2017-05-26 01:48:00,
2017-05-26 03:53:00,59.5,51.9,30.00,NNE,15,2.0,4.0,76,0.00,,,0.00,0,WeatherCatV2.42B15,2017-05-26 01:53:00,
2017-05-26 03:58:00,59.2,52.0,30.00,North,355,3.0,3.0,77,0.00,,,0.00,0,WeatherCatV2.42B15,2017-05-26 01:58:00,
2017-05-26 04:03:00,58.8,51.6,30.00,North,5,1.0,3.0,77,0.00,,,0.00,0,WeatherCatV2.42B15,2017-05-26 02:03:00,
2017-05-26 04:08:00,58.6,51.8,30.00,North,5,0.0,2.0,78,0.00,,,0.00,0,WeatherCatV2.42B15,2017-05-26 02:08:00,
2017-05-26 04:13:00,58.6,51.8,30.00,North,5,0.0,1.0,78,0.00,,,0.00,0,WeatherCatV2.42B15,2017-05-26 02:13:00,
2017-05-26 04:18:00,58.5,52.0,30.01,North,5,0.0,0.0,79,0.00,,,0.00,0,WeatherCatV2.42B15,2017-05-26 02:18:00,
2017-05-26 04:23:00,58.4,51.6,30.00,North,5,0.0,0.0,78,0.00,,,0.00,0,WeatherCatV2.42B15,2017-05-26 02:23:00,
2017-05-26 04:28:00,58.4,51.6,30.01,North,5,2.0,3.0,78,0.00,,,0.00,0,WeatherCatV2.42B15,2017-05-26 02:28:00,
2017-05-26 04:33:00,58.5,51.7,30.01,North,5,2.0,3.0,78,0.00,,,0.00,0,WeatherCatV2.42B15,2017-05-26 02:33:00,
2017-05-26 04:38:00,58.5,51.3,30.01,North,351,3.0,4.0,77,0.00,,,0.00,0,WeatherCatV2.42B15,2017-05-26 02:38:00,
2017-05-26 04:43:00,58.6,50.7,30.01,NNW,343,2.0,4.0,75,0.00,,,0.00,0,WeatherCatV2.42B15,2017-05-26 02:43:00,
2017-05-26 04:48:00,58.6,50.7,30.01,North,355,3.0,3.0,75,0.00,,,0.00,0,WeatherCatV2.42B15,2017-05-26 02:48:00,
2017-05-26 04:53:00,58.4,50.5,30.01,North,350,3.0,3.0,75,0.00,,,0.00,0,WeatherCatV2.42B15,2017-05-26 02:53:00,
2017-05-26 04:58:00,58.5,50.2,30.01,North,355,2.0,3.0,74,0.00,,,0.00,0,WeatherCatV2.42B15,2017-05-26 02:58:00,
2017-05-26 05:03:00,58.5,49.9,30.01,North,0,2.0,4.0,73,0.00,,,0.00,0,WeatherCatV2.42B15,2017-05-26 03:03:00,
2017-05-26 05:08:00,58.7,50.1,30.01,North,355,2.0,3.0,73,0.00,,,0.00,0,WeatherCatV2.42B15,2017-05-26 03:08:00,
2017-05-26 05:13:00,58.5,49.9,30.01,NNW,333,2.0,3.0,73,0.00,,,0.00,0,WeatherCatV2.42B15,2017-05-26 03:13:00,
2017-05-26 05:18:00,58.2,49.6,30.01,NNW,336,4.0,4.0,73,0.00,,,0.00,0,WeatherCatV2.42B15,2017-05-26 03:18:00,
2017-05-26 05:23:00,57.9,49.7,30.01,North,355,3.0,4.0,74,0.00,,,0.00,0,WeatherCatV2.42B15,2017-05-26 03:23:00,
2017-05-26 05:28:00,57.6,49.7,30.01,North,351,3.0,3.0,75,0.00,,,0.00,0,WeatherCatV2.42B15,2017-05-26 03:28:00,
2017-05-26 05:33:00,57.5,49.6,30.01,NNE,13,5.0,5.0,75,0.00,,,0.00,0,WeatherCatV2.42B15,2017-05-26 03:33:00,
2017-05-26 05:38:00,58.0,49.4,30.01,North,355,1.0,4.0,73,0.00,,,0.00,0,WeatherCatV2.42B15,2017-05-26 03:38:00,
2017-05-26 05:43:00,58.3,49.3,30.01,North,350,3.0,5.0,72,0.00,,,0.00,5,WeatherCatV2.42B15,2017-05-26 03:43:00,
2017-05-26 05:48:00,58.3,49.3,30.01,North,350,4.0,5.0,72,0.00,,,0.00,7,WeatherCatV2.42B15,2017-05-26 03:48:00,
2017-05-26 05:53:00,58.3,49.3,30.01,NNW,334,5.0,6.0,72,0.00,,,0.00,18,WeatherCatV2.42B15,2017-05-26 03:53:00,
2017-05-26 05:58:00,58.4,49.4,30.01,North,5,5.0,5.0,72,0.00,,,0.00,25,WeatherCatV2.42B15,2017-05-26 03:58:00,
2017-05-26 06:03:00,58.7,49.3,30.01,North,5,5.0,5.0,71,0.00,,,0.00,35,WeatherCatV2.42B15,2017-05-26 04:03:00,
2017-05-26 06:08:00,59.3,48.7,30.01,North,355,2.0,4.0,68,0.00,,,0.00,42,WeatherCatV2.42B15,2017-05-26 04:08:00,
2017-05-26 06:13:00,59.6,48.6,30.01,NNW,348,3.0,4.0,67,0.00,,,0.00,44,WeatherCatV2.42B15,2017-05-26 04:13:00,
2017-05-26 06:18:00,59.6,48.6,30.01,North,5,4.0,4.0,67,0.00,,,0.00,40,WeatherCatV2.42B15,2017-05-26 04:18:00,
2017-05-26 06:23:00,59.6,48.6,30.01,North,355,3.0,4.0,67,0.00,,,0.00,67,WeatherCatV2.42B15,2017-05-26 04:23:00,
2017-05-26 06:24:00,59.6,48.6,30.01,North,355,3.0,4.0,67,0.00,,,0.00,67,WeatherCatV2.42B15,2017-05-26 04:24:00,
2017-05-26 06:29:00,59.8,48.8,30.01,NW,311,4.0,4.0,67,0.00,,,0.00,83,WeatherCatV2.42B15,2017-05-26 04:29:00,
2017-05-26 06:34:00,60.3,47.7,30.01,NE,42,5.0,8.0,63,0.00,,,0.00,114,WeatherCatV2.42B15,2017-05-26 04:34:00,
2017-05-26 06:39:00,60.7,47.6,30.01,NNW,341,6.0,8.0,62,0.00,,,0.00,132,WeatherCatV2.42B15,2017-05-26 04:39:00,
2017-05-26 06:44:00,60.9,47.8,30.01,NNE,29,5.0,8.0,62,0.00,,,0.00,148,WeatherCatV2.42B15,2017-05-26 04:44:00,
2017-05-26 06:49:00,60.8,48.1,30.01,NNE,17,8.0,8.0,63,0.00,,,0.00,171,WeatherCatV2.42B15,2017-05-26 04:49:00,
2017-05-26 06:54:00,61.0,48.3,30.01,North,0,3.0,5.0,63,0.00,,,0.00,188,WeatherCatV2.42B15,2017-05-26 04:54:00,
2017-05-26 06:59:00,61.2,48.5,30.01,NNE,17,8.0,8.0,63,0.00,,,0.00,199,WeatherCatV2.42B15,2017-05-26 04:59:00,
2017-05-26 07:04:00,61.4,48.7,30.02,NNE,19,4.0,8.0,63,0.00,,,0.00,214,WeatherCatV2.42B15,2017-05-26 05:04:00,
2017-05-26 07:09:00,61.7,49.0,30.01,NNW,330,4.0,6.0,63,0.00,,,0.00,230,WeatherCatV2.42B15,2017-05-26 05:09:00,
2017-05-26 07:14:00,62.0,48.8,30.02,NNE,28,5.0,8.0,62,0.00,,,0.00,246,WeatherCatV2.42B15,2017-05-26 05:14:00,
2017-05-26 07:19:00,62.2,48.6,30.02,NNE,32,5.0,6.0,61,0.00,,,0.00,258,WeatherCatV2.42B15,2017-05-26 05:19:00,
2017-05-26 07:24:00,62.6,49.0,30.02,NNE,27,3.0,7.0,61,0.00,,,0.00,276,WeatherCatV2.42B15,2017-05-26 05:24:00,
2017-05-26 07:29:00,63.0,48.0,30.02,North,0,3.0,9.0,58,0.00,,,0.00,288,WeatherCatV2.42B15,2017-05-26 05:29:00,
2017-05-26 07:34:00,63.3,47.8,30.03,North,11,2.0,7.0,57,0.00,,,0.00,304,WeatherCatV2.42B15,2017-05-26 05:34:00,
2017-05-26 07:39:00,63.8,47.8,30.03,North,5,4.0,7.0,56,0.00,,,0.00,327,WeatherCatV2.42B15,2017-05-26 05:39:00,
2017-05-26 07:44:00,64.1,47.6,30.03,North,5,4.0,4.0,55,0.00,,,0.00,341,WeatherCatV2.42B15,2017-05-26 05:44:00,
2017-05-26 07:49:00,64.5,47.5,30.03,NNE,30,5.0,6.0,54,0.00,,,0.00,355,WeatherCatV2.42B15,2017-05-26 05:49:00,
2017-05-26 07:54:00,64.9,47.8,30.03,NE,55,6.0,8.0,54,0.00,,,0.00,366,WeatherCatV2.42B15,2017-05-26 05:54:00,
2017-05-26 07:59:00,65.2,47.6,30.03,NE,43,5.0,8.0,53,0.00,,,0.00,374,WeatherCatV2.42B15,2017-05-26 05:59:00,
2017-05-26 08:04:00,65.4,47.8,30.03,NE,42,5.0,9.0,53,0.00,,,0.00,374,WeatherCatV2.42B15,2017-05-26 06:04:00,
2017-05-26 08:09:00,65.7,47.6,30.03,NW,320,3.0,7.0,52,0.00,,,0.00,410,WeatherCatV2.42B15,2017-05-26 06:09:00,
2017-05-26 08:14:00,66.1,47.4,30.03,ENE,68,5.0,6.0,51,0.00,,,0.00,420,WeatherCatV2.42B15,2017-05-26 06:14:00,
2017-05-26 08:19:00,66.1,47.4,30.03,ENE,59,6.0,6.0,51,0.00,,,0.00,446,WeatherCatV2.42B15,2017-05-26 06:19:00,
2017-05-26 08:24:00,66.3,47.1,30.03,NNE,22,5.0,9.0,50,0.00,,,0.00,461,WeatherCatV2.42B15,2017-05-26 06:24:00,
2017-05-26 08:29:00,67.1,47.3,30.03,ENE,59,5.0,9.0,49,0.00,,,0.00,478,WeatherCatV2.42B15,2017-05-26 06:29:00,
2017-05-26 08:34:00,67.9,45.8,30.03,NNW,345,11.0,13.0,45,0.00,,,0.00,487,WeatherCatV2.42B15,2017-05-26 06:34:00,
2017-05-26 08:39:00,68.1,46.5,30.03,NNE,30,9.0,9.0,46,0.00,,,0.00,499,WeatherCatV2.42B15,2017-05-26 06:39:00,
2017-05-26 08:44:00,68.4,46.2,30.03,ENE,65,8.0,10.0,45,0.00,,,0.00,506,WeatherCatV2.42B15,2017-05-26 06:44:00,
2017-05-26 08:49:00,69.0,46.8,30.03,NNE,25,8.0,10.0,45,0.00,,,0.00,527,WeatherCatV2.42B15,2017-05-26 06:49:00,
2017-05-26 08:54:00,69.3,45.2,30.03,North,11,5.0,14.0,42,0.00,,,0.00,540,WeatherCatV2.42B15,2017-05-26 06:54:00,
2017-05-26 08:59:00,69.1,45.7,30.03,NE,44,7.0,11.0,43,0.00,,,0.00,550,WeatherCatV2.42B15,2017-05-26 06:59:00,
2017-05-26 09:04:00,69.1,45.7,30.04,NE,39,7.0,12.0,43,0.00,,,0.00,568,WeatherCatV2.42B15,2017-05-26 07:04:00,
2017-05-26 09:09:00,69.4,45.3,30.04,NNE,26,11.0,11.0,42,0.00,,,0.00,570,WeatherCatV2.42B15,2017-05-26 07:09:00,
2017-05-26 09:14:00,69.7,44.9,30.04,North,355,11.0,12.0,41,0.00,,,0.00,589,WeatherCatV2.42B15,2017-05-26 07:14:00,
2017-05-26 09:19:00,70.1,45.3,30.04,North,11,7.0,11.0,41,0.00,,,0.00,603,WeatherCatV2.42B15,2017-05-26 07:19:00,
2017-05-26 09:24:00,70.3,45.5,30.04,North,355,5.0,8.0,41,0.00,,,0.00,615,WeatherCatV2.42B15,2017-05-26 07:24:00,
2017-05-26 09:29:00,70.6,45.7,30.03,NE,38,4.0,9.0,41,0.00,,,0.00,624,WeatherCatV2.42B15,2017-05-26 07:29:00,
2017-05-26 09:34:00,70.8,46.6,30.03,NE,43,11.0,11.0,42,0.00,,,0.00,635,WeatherCatV2.42B15,2017-05-26 07:34:00,
2017-05-26 09:39:00,70.9,45.4,30.04,NE,55,6.0,10.0,40,0.00,,,0.00,649,WeatherCatV2.42B15,2017-05-26 07:39:00,
2017-05-26 09:44:00,71.3,45.0,30.04,NNE,24,10.0,13.0,39,0.00,,,0.00,659,WeatherCatV2.42B15,2017-05-26 07:44:00,
2017-05-26 09:45:00,71.3,45.0,30.04,NNW,343,9.0,13.0,39,0.00,,,0.00,663,WeatherCatV2.42B15,2017-05-26 07:45:00,
2017-05-26 09:49:00,71.5,44.5,30.03,NE,55,5.0,12.0,38,0.00,,,0.00,673,WeatherCatV2.42B15,2017-05-26 07:49:00,
2017-05-26 09:54:00,71.4,45.1,30.03,NNW,342,9.0,12.0,39,0.00,,,0.00,682,WeatherCatV2.42B15,2017-05-26 07:54:00,
2017-05-26 09:59:00,71.9,45.6,30.03,NE,45,7.0,11.0,39,0.00,,,0.00,693,WeatherCatV2.42B15,2017-05-26 07:59:00,
2017-05-26 10:04:00,72.2,45.2,30.03,ENE,78,5.0,10.0,38,0.00,,,0.00,707,WeatherCatV2.42B15,2017-05-26 08:04:00,
2017-05-26 10:09:00,72.3,45.3,30.03,NNE,19,4.0,9.0,38,0.00,,,0.00,761,WeatherCatV2.42B15,2017-05-26 08:09:00,
2017-05-26 10:14:00,72.5,45.4,30.03,NNE,24,10.0,11.0,38,0.00,,,0.00,729,WeatherCatV2.42B15,2017-05-26 08:14:00,
2017-05-26 10:19:00,72.9,45.1,30.03,NNW,342,9.0,13.0,37,0.00,,,0.00,735,WeatherCatV2.42B15,2017-05-26 08:19:00,
2017-05-26 10:24:00,73.0,45.2,30.03,North,349,3.0,14.0,37,0.00,,,0.00,744,WeatherCatV2.42B15,2017-05-26 08:24:00,
2017-05-26 10:34:00,73.6,45.0,30.03,NNE,13,12.0,13.0,36,0.00,,,0.00,765,WeatherCatV2.42B15,2017-05-26 08:34:00,
2017-05-26 10:40:00,73.8,45.2,30.02,NNE,17,10.0,10.0,36,0.00,,,0.00,766,WeatherCatV2.42B15,2017-05-26 08:40:00,
2017-05-26 10:45:00,73.8,44.4,30.02,NW,321,11.0,14.0,35,0.00,,,0.00,777,WeatherCatV2.42B15,2017-05-26 08:45:00,
2017-05-26 10:49:00,74.3,44.1,30.02,NNE,14,4.0,9.0,34,0.00,,,0.00,786,WeatherCatV2.42B15,2017-05-26 08:49:00,
2017-05-26 10:54:00,74.8,43.8,30.02,North,5,10.0,14.0,33,0.00,,,0.00,796,WeatherCatV2.42B15,2017-05-26 08:54:00,
2017-05-26 10:59:00,74.6,43.6,30.02,NNW,343,12.0,14.0,33,0.00,,,0.00,802,WeatherCatV2.42B15,2017-05-26 08:59:00,
2017-05-26 11:04:00,74.4,43.4,30.02,NNW,344,9.0,12.0,33,0.00,,,0.00,810,WeatherCatV2.42B15,2017-05-26 09:04:00,
2017-05-26 11:05:00,74.5,44.3,30.02,North,0,11.0,17.0,34,0.00,,,0.00,814,WeatherCatV2.42B15,2017-05-26 09:05:00,
2017-05-26 11:10:00,75.0,43.9,30.02,SW,215,5.0,12.0,33,0.00,,,0.00,814,WeatherCatV2.42B15,2017-05-26 09:10:00,
2017-05-26 11:15:00,75.1,44.0,30.02,NNE,27,9.0,13.0,33,0.00,,,0.00,826,WeatherCatV2.42B15,2017-05-26 09:15:00,
2017-05-26 11:20:00,75.4,44.3,30.02,NW,313,6.0,14.0,33,0.00,,,0.00,826,WeatherCatV2.42B15,2017-05-26 09:20:00,
2017-05-26 11:25:00,75.4,43.5,30.02,NNW,343,9.0,15.0,32,0.00,,,0.00,837,WeatherCatV2.42B15,2017-05-26 09:25:00,
2017-05-26 11:30:00,75.7,42.9,30.01,NW,321,9.0,10.0,31,0.00,,,0.00,842,WeatherCatV2.42B15,2017-05-26 09:30:00,
2017-05-26 11:35:00,75.8,43.0,30.02,NE,44,7.0,13.0,31,0.00,,,0.00,847,WeatherCatV2.42B15,2017-05-26 09:35:00,
2017-05-26 11:40:00,75.9,43.1,30.01,NE,53,6.0,14.0,31,0.00,,,0.00,853,WeatherCatV2.42B15,2017-05-26 09:40:00,
2017-05-26 11:45:00,76.1,43.2,30.02,North,9,5.0,8.0,31,0.00,,,0.00,853,WeatherCatV2.42B15,2017-05-26 09:45:00,
2017-05-26 11:50:00,76.3,43.4,30.02,ENE,71,3.0,5.0,31,0.00,,,0.00,853,WeatherCatV2.42B15,2017-05-26 09:50:00,
2017-05-26 11:55:00,76.7,42.9,30.02,NW,325,6.0,11.0,30,0.00,,,0.00,856,WeatherCatV2.42B15,2017-05-26 09:55:00,
2017-05-26 12:00:00,76.8,43.9,30.01,NNW,344,6.0,12.0,31,0.00,,,0.00,865,WeatherCatV2.42B15,2017-05-26 10:00:00,
2017-05-26 12:05:00,77.3,43.4,30.01,NNW,341,6.0,12.0,30,0.00,,,0.00,870,WeatherCatV2.42B15,2017-05-26 10:05:00,
2017-05-26 12:10:00,76.9,43.1,30.02,NW,321,2.0,10.0,30,0.00,,,0.00,868,WeatherCatV2.42B15,2017-05-26 10:10:00,
2017-05-26 12:15:00,77.0,43.2,30.01,NNE,24,8.0,8.0,30,0.00,,,0.00,874,WeatherCatV2.42B15,2017-05-26 10:15:00,
2017-05-26 12:20:00,77.3,42.5,30.01,North,5,6.0,12.0,29,0.00,,,0.00,877,WeatherCatV2.42B15,2017-05-26 10:20:00,
2017-05-26 12:25:00,77.2,42.5,30.01,North,5,3.0,7.0,29,0.00,,,0.00,877,WeatherCatV2.42B15,2017-05-26 10:25:00,
2017-05-26 12:26:00,77.2,42.5,30.01,North,351,3.0,7.0,29,0.00,,,0.00,877,WeatherCatV2.42B15,2017-05-26 10:26:00,
2017-05-26 12:31:00,77.0,42.3,30.01,NNW,334,5.0,9.0,29,0.00,,,0.00,872,WeatherCatV2.42B15,2017-05-26 10:31:00,
2017-05-26 12:36:00,77.4,42.6,30.01,ENE,74,5.0,7.0,29,0.00,,,0.00,870,WeatherCatV2.42B15,2017-05-26 10:36:00,
2017-05-26 12:41:00,77.5,42.7,30.01,East,90,3.0,7.0,29,0.00,,,0.00,872,WeatherCatV2.42B15,2017-05-26 10:41:00,
2017-05-26 12:46:00,77.9,43.1,30.01,NNW,327,11.0,14.0,29,0.00,,,0.00,872,WeatherCatV2.42B15,2017-05-26 10:46:00,
2017-05-26 12:51:00,77.6,42.8,30.01,NNE,28,9.0,10.0,29,0.00,,,0.00,872,WeatherCatV2.42B15,2017-05-26 10:51:00,
2017-05-26 12:56:00,77.7,42.9,30.01,ENE,63,6.0,6.0,29,0.00,,,0.00,867,WeatherCatV2.42B15,2017-05-26 10:56:00,
2017-05-26 13:01:00,77.9,44.0,30.00,WSW,248,3.0,6.0,30,0.00,,,0.00,865,WeatherCatV2.42B15,2017-05-26 11:01:00,
2017-05-26 13:06:00,78.2,43.3,30.00,West,269,7.0,7.0,29,0.00,,,0.00,868,WeatherCatV2.42B15,2017-05-26 11:06:00,
2017-05-26 13:11:00,78.1,43.2,30.00,SW,234,2.0,4.0,29,0.00,,,0.00,863,WeatherCatV2.42B15,2017-05-26 11:11:00,
2017-05-26 13:16:00,78.0,51.7,30.00,SW,218,6.0,8.0,40,0.00,,,0.00,870,WeatherCatV2.42B15,2017-05-26 11:16:00,
2017-05-26 13:21:00,77.5,52.6,30.00,SSW,213,4.0,12.0,42,0.00,,,0.00,858,WeatherCatV2.42B15,2017-05-26 11:21:00,
2017-05-26 13:26:00,77.4,52.5,30.00,SW,227,3.0,9.0,42,0.00,,,0.00,856,WeatherCatV2.42B15,2017-05-26 11:26:00,
2017-05-26 13:31:00,77.6,51.3,30.00,SSW,206,8.0,15.0,40,0.00,,,0.00,853,WeatherCatV2.42B15,2017-05-26 11:31:00,
2017-05-26 13:36:00,77.7,50.8,30.00,South,182,7.0,11.0,39,0.00,,,0.00,851,WeatherCatV2.42B15,2017-05-26 11:36:00,
2017-05-26 13:41:00,78.0,51.0,30.00,SW,215,4.0,10.0,39,0.00,,,0.00,849,WeatherCatV2.42B15,2017-05-26 11:41:00,
2017-05-26 13:46:00,77.7,54.0,30.00,South,172,9.0,16.0,44,0.00,,,0.00,846,WeatherCatV2.42B15,2017-05-26 11:46:00,
2017-05-26 13:51:00,76.9,53.9,29.99,South,188,12.0,14.0,45,0.00,,,0.00,847,WeatherCatV2.42B15,2017-05-26 11:51:00,